Granite Falls, North Carolina
Current Conditions -  °F | °C
As of 3:53 AM on Saturday 25 Oct 2014 (Local Time) from KHKY Reporting Station
Clear Clear  
Wind Chill: 41°   Ceiling: Unl
Heat Index: 45°   Visibility: 10mi
Dew Point: 41°   Wind: 8mph
Humidity: 86%   Direction: 300°WNW
Pressure: 30.01"   Gusts: NA
Location:  35.8°N, 81.43°W
Report Text: KHKY 250753Z AUTO 30007KT 10SM CLR 07/05 A3001 RMK AO2 SLP149 T00720050
Loading
Personal Weather Stations






























Interactive Weather Map
Tropical Storm Tracking
New forecast layout! Learn more

10-Day Weather Forecast

Advertisements
Track Severe Weather on mobile